Time;durP1;ratioP1;P1;durP2;ratioP2;P2;SDS_P1;SDS_P2;PMS_P1;PMS_P2;Temp;Humidity;BMP_temperature;BMP_pressure;BME280_temperature;BME280_humidity;BME280_pressure;Samples;Min_cycle;Max_cycle;Signal;HPM_P1;HPM_P2
2022/03/03 00:02:14;;;;;;;;;74.25;57.75;;;;;13.04;100.00;101392.47;6336296;22;45573;-95
2022/03/03 00:04:40;;;;;;;;;71.75;54.25;;;;;13.00;100.00;101387.00;6310640;22;47010;-96
2022/03/03 00:07:06;;;;;;;;;66.50;52.75;;;;;13.01;100.00;101387.09;6311110;22;45286;-96
2022/03/03 00:09:31;;;;;;;;;73.50;57.00;;;;;13.04;100.00;101391.59;6311417;22;45440;-95
2022/03/03 00:11:57;;;;;;;;;73.75;55.25;;;;;13.05;100.00;101388.13;6341509;22;45276;-95
2022/03/03 00:14:22;;;;;;;;;73.00;57.75;;;;;13.08;100.00;101401.44;6337865;22;47699;-95
2022/03/03 00:16:49;;;;;;;;;72.25;56.50;;;;;13.15;100.00;101399.97;6370330;22;45363;-96
2022/03/03 00:19:14;;;;;;;;;71.00;55.00;;;;;13.03;100.00;101380.16;6337461;22;45245;-96
2022/03/03 00:21:40;;;;;;;;;74.75;56.50;;;;;13.16;100.00;101402.69;6362138;22;45310;-96
2022/03/03 00:24:09;;;;;;;;;72.25;55.50;;;;;13.07;100.00;101378.53;6362262;22;46161;-96
2022/03/03 00:26:34;;;;;;;;;69.25;55.75;;;;;13.17;100.00;101396.56;6334917;22;45538;-96
2022/03/03 00:29:00;;;;;;;;;70.25;55.00;;;;;13.10;100.00;101388.31;6335334;22;45343;-95
2022/03/03 00:31:25;;;;;;;;;70.00;54.25;;;;;13.16;100.00;101400.06;6361244;22;45407;-95
2022/03/03 00:33:50;;;;;;;;;75.00;55.50;;;;;13.16;100.00;101399.16;6335313;22;46908;-95
2022/03/03 00:36:16;;;;;;;;;73.00;58.25;;;;;13.16;100.00;101401.78;6335195;22;45369;-96
2022/03/03 00:38:42;;;;;;;;;74.25;58.00;;;;;13.15;100.00;101398.25;6335401;22;45550;-95
2022/03/03 00:41:08;;;;;;;;;74.00;58.75;;;;;13.15;100.00;101399.97;6334978;22;45431;-95
2022/03/03 00:43:33;;;;;;;;;74.25;57.50;;;;;13.09;100.00;101390.03;6360988;22;48518;-95
2022/03/03 00:45:58;;;;;;;;;76.00;57.00;;;;;13.15;100.00;101400.88;6334249;22;45867;-96
2022/03/03 00:48:24;;;;;;;;;73.00;57.00;;;;;13.13;100.00;101405.19;6335392;22;45418;-95
2022/03/03 00:50:49;;;;;;;;;73.25;58.00;;;;;13.17;100.00;101414.13;6335020;22;45360;-96
2022/03/03 00:53:15;;;;;;;;;76.00;60.00;;;;;13.04;100.00;101397.75;6361093;22;47216;-96
2022/03/03 00:55:40;;;;;;;;;68.75;56.50;;;;;13.15;100.00;101416.69;6361600;22;45260;-95
2022/03/03 00:58:06;;;;;;;;;76.50;59.00;;;;;13.04;100.00;101397.75;6334363;22;45270;-96
2022/03/03 01:00:31;;;;;;;;;75.50;57.75;;;;;13.00;100.00;101397.53;6334953;22;45368;-95
2022/03/03 01:02:57;;;;;;;;;72.25;56.00;;;;;12.93;100.00;101389.38;6361592;22;48095;-96
2022/03/03 01:05:22;;;;;;;;;72.50;53.75;;;;;12.88;100.00;101389.97;6361654;22;45885;-95
2022/03/03 01:07:47;;;;;;;;;73.50;55.75;;;;;12.93;100.00;101404.28;6361104;22;45274;-95
2022/03/03 01:10:13;;;;;;;;;73.25;56.75;;;;;12.83;100.00;101389.78;6361596;22;45283;-96
2022/03/03 01:12:39;;;;;;;;;69.75;55.75;;;;;12.77;100.00;101385.13;6334468;22;47033;-96
2022/03/03 01:15:07;;;;;;;;;73.00;56.00;;;;;12.84;100.00;101405.66;6335640;22;45407;-96
2022/03/03 01:17:33;;;;;;;;;77.25;60.25;;;;;12.72;100.00;101390.19;6336552;22;45413;-95
2022/03/03 01:19:58;;;;;;;;;73.50;56.00;;;;;12.67;100.00;101391.69;6362467;22;45527;-95
2022/03/03 01:22:24;;;;;;;;;73.50;56.50;;;;;12.76;100.00;101407.00;6334211;22;47197;-95
2022/03/03 01:24:49;;;;;;;;;70.75;54.75;;;;;12.68;100.00;101401.38;6335119;22;45253;-95
2022/03/03 01:27:18;;;;;;;;;72.50;56.50;;;;;12.67;100.00;101391.69;6360487;22;45690;-96
2022/03/03 01:29:44;;;;;;;;;71.50;54.25;;;;;12.58;100.00;101391.22;6361807;22;45267;-95
2022/03/03 01:32:09;;;;;;;;;74.25;58.25;;;;;12.57;100.00;101395.63;6361210;22;48093;-95
2022/03/03 01:34:36;;;;;;;;;71.75;54.25;;;;;12.48;100.00;101377.63;6361106;22;45612;-95
2022/03/03 01:37:02;;;;;;;;;71.25;54.75;;;;;12.51;100.00;101383.06;6361789;22;45367;-95
2022/03/03 01:39:27;;;;;;;;;73.25;57.00;;;;;12.46;100.00;101376.66;6361167;22;45596;-95
2022/03/03 01:41:53;;;;;;;;;74.75;58.00;;;;;12.55;100.00;101388.47;6333798;22;48184;-95
2022/03/03 01:44:18;;;;;;;;;74.00;55.50;;;;;12.55;100.00;101393.75;6333441;22;45379;-94
2022/03/03 01:46:55;;;;;;;;;75.25;59.00;;;;;12.61;100.00;101389.66;6360888;22;45456;-96
2022/03/03 01:49:21;;;;;;;;;72.75;55.25;;;;;12.51;100.00;101384.78;6334384;22;45351;-96
2022/03/03 01:51:46;;;;;;;;;75.75;57.25;;;;;12.37;100.00;101360.44;6334134;22;48443;-95
2022/03/03 01:54:12;;;;;;;;;72.75;55.75;;;;;12.52;100.00;101382.22;6334120;22;45209;-96
2022/03/03 01:56:40;;;;;;;;;76.75;59.00;;;;;12.51;100.00;101383.06;6334367;22;45324;-96
2022/03/03 01:59:06;;;;;;;;;71.00;55.25;;;;;12.49;100.00;101376.81;6333961;22;45356;-96
2022/03/03 02:01:31;;;;;;;;;73.50;58.00;;;;;12.45;100.00;101358.16;6360407;22;46836;-96
2022/03/03 02:03:58;;;;;;;;;77.25;59.75;;;;;12.57;100.00;101363.13;6334322;22;45343;-96
2022/03/03 02:06:24;;;;;;;;;76.00;57.25;;;;;12.68;100.00;101377.66;6334247;22;45366;-95
2022/03/03 02:08:51;;;;;;;;;79.25;60.25;;;;;12.64;100.00;101365.19;6361343;22;45238;-96
2022/03/03 02:11:17;;;;;;;;;89.25;70.25;;;;;12.77;100.00;101371.03;6333596;22;48182;-96
2022/03/03 02:13:43;;;;;;;;;90.25;71.50;;;;;12.82;100.00;101374.78;6360767;22;45697;-96
2022/03/03 02:16:08;;;;;;;;;97.75;81.00;;;;;12.84;100.00;101371.41;6361005;22;45362;-96
2022/03/03 02:18:41;;;;;;;;;93.50;73.25;;;;;13.02;100.00;101377.44;6334123;22;45508;-95
2022/03/03 02:21:10;;;;;;;;;85.25;66.75;;;;;13.05;100.00;101378.47;6334603;22;47527;-96
2022/03/03 02:23:36;;;;;;;;;80.50;61.00;;;;;12.95;100.00;101361.34;6334103;22;45904;-95
2022/03/03 02:26:02;;;;;;;;;76.50;59.75;;;;;13.11;100.00;101372.59;6334080;22;45366;-95
2022/03/03 02:28:27;;;;;;;;;81.50;60.50;;;;;13.10;100.00;101365.50;6334528;22;45339;-95
2022/03/03 02:30:53;;;;;;;;;77.75;59.25;;;;;13.12;100.00;101360.28;6362234;22;48067;-95
2022/03/03 02:33:18;;;;;;;;;76.25;58.25;;;;;13.12;100.00;101349.75;6362335;22;45454;-95
2022/03/03 02:35:44;;;;;;;;;76.50;57.00;;;;;13.23;100.00;101366.03;6362307;22;45320;-96
2022/03/03 02:38:09;;;;;;;;;76.75;59.75;;;;;13.24;100.00;101366.13;6335465;22;45434;-95
2022/03/03 02:40:35;;;;;;;;;77.00;58.00;;;;;13.17;100.00;101351.75;6335691;22;47130;-95
2022/03/03 02:43:00;;;;;;;;;76.00;58.75;;;;;13.26;100.00;101356.56;6334922;22;45204;-95
2022/03/03 02:45:25;;;;;;;;;75.00;57.50;;;;;13.21;100.00;101344.00;6336072;22;45282;-95
2022/03/03 02:47:52;;;;;;;;;72.00;56.25;;;;;13.24;100.00;101334.50;6362262;22;45313;-95
2022/03/03 02:50:29;;;;;;;;;76.50;57.75;;;;;13.28;100.00;101335.50;6346717;22;47380;-95
2022/03/03 02:52:57;;;;;;;;;74.75;56.25;;;;;13.37;100.00;101349.13;6391536;22;45097;-95
2022/03/03 02:55:22;;;;;;;;;77.75;59.00;;;;;13.42;100.00;101349.31;6390258;22;44849;-96
2022/03/03 02:57:54;;;;;;;;;77.75;60.25;;;;;13.37;100.00;101333.31;6389503;22;44783;-95
2022/03/03 03:00:28;;;;;;;;;80.75;59.00;;;;;13.52;100.00;101333.06;6373614;22;46975;-96
2022/03/03 03:02:55;;;;;;;;;79.00;58.00;;;;;13.58;100.00;101342.09;6337203;22;45507;-96
2022/03/03 03:05:21;;;;;;;;;75.00;57.50;;;;;13.48;100.00;101311.72;6336153;22;45325;-96
2022/03/03 03:07:46;;;;;;;;;68.00;53.50;;;;;13.50;100.00;101310.97;6362987;22;45458;-95
2022/03/03 03:10:12;;;;;;;;;77.75;58.75;;;;;13.55;100.00;101313.81;6362615;22;46862;-96
2022/03/03 03:12:38;;;;;;;;;77.25;58.75;;;;;13.63;100.00;101322.97;6334405;22;45351;-94
2022/03/03 03:15:05;;;;;;;;;72.75;56.50;;;;;13.67;100.00;101323.09;6362621;22;45445;-95
2022/03/03 03:17:30;;;;;;;;;72.50;57.00;;;;;13.69;100.00;101335.53;6334976;22;45551;-94
2022/03/03 03:19:55;;;;;;;;;73.00;54.00;;;;;13.57;100.00;101306.91;6335000;22;47365;-95
2022/03/03 03:22:21;;;;;;;;;70.50;56.75;;;;;13.60;100.00;101309.69;6361356;22;45279;-95
2022/03/03 03:24:46;;;;;;;;;71.25;57.00;;;;;13.57;100.00;101296.34;6335089;22;45843;-95
2022/03/03 03:27:12;;;;;;;;;72.50;54.75;;;;;13.67;100.00;101304.63;6361474;22;45344;-95
2022/03/03 03:29:37;;;;;;;;;72.00;54.25;;;;;13.77;100.00;101316.47;6334807;22;47426;-96
2022/03/03 03:32:03;;;;;;;;;73.25;56.50;;;;;13.72;100.00;101297.81;6361248;22;45394;-95
2022/03/03 03:34:28;;;;;;;;;70.25;55.50;;;;;13.75;100.00;101297.94;6361965;22;45275;-95
2022/03/03 03:36:54;;;;;;;;;71.50;54.75;;;;;13.74;100.00;101294.41;6361702;22;45276;-95
2022/03/03 03:39:19;;;;;;;;;74.00;55.50;;;;;13.71;100.00;101285.47;6361467;22;47874;-96
2022/03/03 03:41:45;;;;;;;;;75.00;56.75;;;;;13.80;100.00;101299.03;6360904;22;45766;-93
2022/03/03 03:44:10;;;;;;;;;69.75;56.00;;;;;13.77;100.00;101288.34;6361225;22;45509;-94
2022/03/03 03:46:37;;;;;;;;;73.00;56.25;;;;;13.79;100.00;101289.31;6334555;22;45462;-93
2022/03/03 03:49:03;;;;;;;;;69.25;53.00;;;;;13.84;100.00;101295.69;6361438;22;48458;-93
2022/03/03 03:51:28;;;;;;;;;65.50;53.25;;;;;13.81;100.00;101285.00;6361934;22;45917;-93
2022/03/03 03:53:53;;;;;;;;;70.50;54.50;;;;;13.84;100.00;101277.22;6334652;22;45307;-96
2022/03/03 03:56:19;;;;;;;;;68.75;55.00;;;;;13.91;100.00;101290.66;6336301;22;45421;-96
2022/03/03 03:58:45;;;;;;;;;76.50;55.25;;;;;13.90;100.00;101280.94;6334724;22;46996;-95
2022/03/03 04:01:10;;;;;;;;;72.00;54.50;;;;;13.94;100.00;101285.50;6334822;22;45186;-95
2022/03/03 04:03:36;;;;;;;;;71.00;55.50;;;;;13.89;100.00;101273.88;6334591;22;45257;-96
2022/03/03 04:06:01;;;;;;;;;70.75;53.25;;;;;13.96;100.00;101278.56;6334939;22;45347;-95
2022/03/03 04:08:27;;;;;;;;;71.25;56.50;;;;;13.94;100.00;101278.47;6361953;22;47050;-95
2022/03/03 04:10:52;;;;;;;;;69.50;54.25;;;;;13.89;100.00;101258.03;6333866;22;45504;-95
2022/03/03 04:13:18;;;;;;;;;70.75;54.50;;;;;13.89;100.00;101252.75;6361666;22;45526;-95
2022/03/03 04:15:43;;;;;;;;;62.50;51.50;;;;;14.04;100.00;101278.84;6337318;22;45382;-93
2022/03/03 04:18:10;;;;;;;;;70.25;53.75;;;;;14.04;100.00;101274.50;6334771;22;47582;-93
2022/03/03 04:20:36;;;;;;;;;71.25;54.00;;;;;13.92;100.00;101242.31;6335044;22;45854;-93
2022/03/03 04:23:02;;;;;;;;;72.50;53.75;;;;;14.04;100.00;101252.47;6335689;22;45321;-94
2022/03/03 04:25:27;;;;;;;;;70.00;53.00;;;;;14.02;100.00;101249.75;6334584;22;45244;-94
2022/03/03 04:27:53;;;;;;;;;66.50;52.00;;;;;14.05;100.00;101247.22;6334525;22;46926;-94
2022/03/03 04:30:18;;;;;;;;;70.50;54.50;;;;;14.08;100.00;101247.34;6335485;22;45608;-93
2022/03/03 04:32:43;;;;;;;;;62.25;51.75;;;;;14.13;100.00;101257.19;6361298;22;45229;-94
2022/03/03 04:35:10;;;;;;;;;66.25;52.00;;;;;14.04;100.00;101234.91;6335366;22;45422;-95
2022/03/03 04:37:36;;;;;;;;;69.25;52.75;;;;;14.04;100.00;101232.25;6360735;22;47119;-96
2022/03/03 04:40:03;;;;;;;;;72.25;55.25;;;;;14.04;100.00;101228.72;6361276;22;45350;-94
2022/03/03 04:42:28;;;;;;;;;63.75;52.00;;;;;14.08;100.00;101238.53;6334240;22;45264;-96
2022/03/03 04:44:53;;;;;;;;;70.25;54.25;;;;;14.12;100.00;101237.81;6335452;22;45449;-95
2022/03/03 04:47:19;;;;;;;;;65.25;53.25;;;;;14.19;100.00;101249.50;6360450;22;46951;-94
2022/03/03 04:49:45;;;;;;;;;71.50;54.75;;;;;14.15;100.00;101239.66;6361543;22;45340;-94
2022/03/03 04:52:11;;;;;;;;;70.25;54.25;;;;;14.13;100.00;101226.41;6360881;22;45718;-95
2022/03/03 04:54:37;;;;;;;;;68.25;51.00;;;;;14.12;100.00;101227.25;6335211;22;45396;-94
2022/03/03 04:57:02;;;;;;;;;69.75;54.00;;;;;14.11;100.00;101228.09;6334527;22;47256;-94
2022/03/03 04:59:28;;;;;;;;;69.75;54.00;;;;;14.04;100.00;101216.41;6360948;22;45424;-94
2022/03/03 05:01:53;;;;;;;;;67.00;52.50;;;;;14.15;100.00;101239.66;6361542;22;45379;-95
2022/03/03 05:04:19;;;;;;;;;63.25;51.75;;;;;14.06;100.00;101230.56;6335410;22;45477;-95
2022/03/03 05:06:46;;;;;;;;;64.50;52.00;;;;;13.99;100.00;101215.34;6334012;22;48219;-95
2022/03/03 05:09:11;;;;;;;;;70.50;54.25;;;;;13.96;100.00;101224.03;6334766;22;45547;-95
2022/03/03 05:11:37;;;;;;;;;67.00;52.50;;;;;13.85;100.00;101206.88;6361069;22;45436;-95
2022/03/03 05:14:03;;;;;;;;;69.50;53.75;;;;;13.82;100.00;101209.38;6334650;22;45303;-96
2022/03/03 05:16:28;;;;;;;;;69.25;52.25;;;;;13.87;100.00;101217.47;6335174;22;46900;-96
2022/03/03 05:18:54;;;;;;;;;64.00;53.25;;;;;13.87;100.00;101215.75;6335573;22;45239;-95
2022/03/03 05:21:19;;;;;;;;;68.00;50.75;;;;;13.81;100.00;101211.13;6361265;22;45299;-95
2022/03/03 05:23:45;;;;;;;;;71.75;52.75;;;;;13.93;100.00;101217.72;6335834;22;45367;-95
2022/03/03 05:26:10;;;;;;;;;65.00;52.50;;;;;13.89;100.00;101213.19;6334401;22;46965;-96
2022/03/03 05:28:36;;;;;;;;;68.75;55.25;;;;;13.94;100.00;101216.91;6334899;22;45704;-94
2022/03/03 05:31:02;;;;;;;;;61.75;49.00;;;;;13.98;100.00;101218.81;6361421;22;45479;-96
2022/03/03 05:33:27;;;;;;;;;66.75;53.50;;;;;14.01;100.00;101224.22;6335074;22;45360;-94
2022/03/03 05:35:58;;;;;;;;;69.75;53.75;;;;;14.03;100.00;101216.34;6334654;22;46857;-95
2022/03/03 05:38:28;;;;;;;;;66.25;51.75;;;;;14.04;100.00;101215.50;6361579;22;45825;-95
2022/03/03 05:40:54;;;;;;;;;69.75;53.75;;;;;14.07;100.00;101228.84;6361415;22;45366;-96
2022/03/03 05:43:19;;;;;;;;;71.75;52.50;;;;;14.15;100.00;101243.22;6361086;22;45574;-95
2022/03/03 05:45:48;;;;;;;;;69.25;52.00;;;;;14.11;100.00;101230.75;6361422;22;47204;-95
2022/03/03 05:48:19;;;;;;;;;71.50;52.75;;;;;14.12;100.00;101211.41;6335409;22;45224;-95
2022/03/03 05:50:46;;;;;;;;;72.00;55.00;;;;;14.21;100.00;101234.63;6334934;22;45275;-96
2022/03/03 05:53:12;;;;;;;;;35.25;30.00;;;;;14.17;100.00;101228.31;6335726;22;45217;-95
2022/03/03 05:55:42;;;;;;;;;65.00;52.75;;;;;14.25;100.00;101240.94;6362753;22;47025;-95
2022/03/03 05:58:11;;;;;;;;;68.75;55.50;;;;;14.14;100.00;101217.66;6336036;22;45454;-95
2022/03/03 06:00:38;;;;;;;;;66.75;53.75;;;;;14.15;100.00;101226.47;6337016;22;45355;-95
2022/03/03 06:03:03;;;;;;;;;70.00;54.25;;;;;14.04;100.00;101208.50;6337144;22;45307;-95
2022/03/03 06:05:29;;;;;;;;;68.75;53.00;;;;;14.18;100.00;101229.22;6375526;22;46848;-92
2022/03/03 06:08:05;;;;;;;;;70.75;53.75;;;;;14.27;100.00;101226.97;6382900;22;45208;-93
2022/03/03 06:10:33;;;;;;;;;73.25;54.00;;;;;14.17;100.00;101211.59;6357810;22;45466;-93
2022/03/03 06:13:23;;;;;;;;;71.00;54.50;;;;;14.27;100.00;101221.69;6382810;22;45391;-93
2022/03/03 06:15:50;;;;;;;;;71.25;55.00;;;;;14.21;100.00;101210.88;6353673;22;47102;-93
2022/03/03 06:18:17;;;;;;;;;68.25;52.75;;;;;14.22;100.00;101220.59;6353405;22;45380;-94
2022/03/03 06:20:44;;;;;;;;;69.25;53.00;;;;;14.26;100.00;101222.50;6380172;22;45315;-93
2022/03/03 06:23:09;;;;;;;;;71.75;55.50;;;;;14.17;100.00;101214.25;6380319;22;45209;-94
2022/03/03 06:25:36;;;;;;;;;70.25;54.25;;;;;14.24;100.00;101207.44;6347894;22;46871;-94
2022/03/03 06:28:02;;;;;;;;;74.00;56.25;;;;;14.24;100.00;101225.94;6363835;22;45382;-96
2022/03/03 06:30:31;;;;;;;;;70.75;53.75;;;;;14.27;100.00;101228.69;6337997;22;45350;-95
2022/03/03 06:32:56;;;;;;;;;66.75;52.50;;;;;14.26;100.00;101227.78;6389692;22;44989;-95
2022/03/03 06:35:21;;;;;;;;;69.50;54.75;;;;;14.23;100.00;101213.56;6364886;22;47289;-95
2022/03/03 06:37:47;;;;;;;;;69.00;55.25;;;;;14.25;100.00;101217.19;6364632;22;44744;-95
2022/03/03 06:40:13;;;;;;;;;65.25;53.00;;;;;14.25;100.00;101214.53;6390334;22;44777;-96
2022/03/03 06:42:38;;;;;;;;;66.50;52.50;;;;;14.39;100.00;101230.88;6339161;22;45387;-94
2022/03/03 06:45:04;;;;;;;;;72.25;56.50;;;;;14.37;100.00;101228.19;6367877;22;47013;-95
2022/03/03 06:47:29;;;;;;;;;69.25;56.25;;;;;14.28;100.00;101210.25;6341507;22;45539;-95
2022/03/03 06:49:55;;;;;;;;;68.75;54.50;;;;;14.32;100.00;101221.84;6337455;22;45367;-95
2022/03/03 06:52:24;;;;;;;;;67.50;52.50;;;;;14.46;100.00;101235.53;6363794;22;45272;-95
2022/03/03 06:54:52;;;;;;;;;70.50;55.75;;;;;14.42;100.00;101223.09;6337673;22;48155;-95
2022/03/03 06:57:21;;;;;;;;;72.75;55.75;;;;;14.49;100.00;101237.41;6335611;22;45633;-94
2022/03/03 06:59:47;;;;;;;;;71.25;54.75;;;;;14.48;100.00;101238.25;6363231;22;45173;-94
2022/03/03 07:02:14;;;;;;;;;66.50;52.50;;;;;14.45;100.00;101220.56;6335934;22;45314;-95
2022/03/03 07:04:40;;;;;;;;;69.75;53.50;;;;;14.57;100.00;101240.31;6362595;22;47094;-95
2022/03/03 07:07:06;;;;;;;;;68.00;50.25;;;;;14.61;100.00;101242.25;6362574;22;45562;-95
2022/03/03 07:09:33;;;;;;;;;68.50;55.00;;;;;14.71;100.00;101252.31;6336614;22;45335;-94
2022/03/03 07:12:00;;;;;;;;;69.25;54.25;;;;;14.71;100.00;101248.78;6361874;22;45352;-95
2022/03/03 07:14:25;;;;;;;;;68.50;54.75;;;;;14.72;100.00;101242.63;6333932;22;48021;-95
2022/03/03 07:17:11;;;;;;;;;71.25;56.25;;;;;14.87;100.00;101250.22;6335572;22;45332;-94
2022/03/03 07:19:52;;;;;;;;;67.50;52.00;;;;;14.95;100.00;101250.50;6361857;22;45722;-95
2022/03/03 07:22:33;;;;;;;;;68.50;53.25;;;;;14.97;100.00;101248.84;6336561;22;45542;-96
2022/03/03 07:25:06;;;;;;;;;69.75;53.50;;;;;15.07;100.00;101252.72;6360255;22;47953;-86
2022/03/03 07:27:33;;;;;;;;;63.75;50.25;;;;;15.09;100.00;101258.94;6331322;22;45299;-87
2022/03/03 07:30:09;;;;;;;;;65.50;51.50;;;;;15.19;100.00;101252.22;6334451;22;45197;-89
2022/03/03 07:32:46;;;;;;;;;71.25;53.50;;;;;15.17;100.00;101246.91;6328369;22;45714;-88
2022/03/03 07:35:14;;;;;;;;;64.25;52.00;;;;;15.13;100.00;101247.63;6334801;22;46528;-88
2022/03/03 07:37:56;;;;;;;;;58.00;45.75;;;;;15.20;100.00;101254.03;6334187;22;45603;-87
2022/03/03 07:40:24;;;;;;;;;53.00;39.25;;;;;15.14;100.00;101241.50;6331956;22;45472;-87
2022/03/03 07:42:51;;;;;;;;;55.25;42.25;;;;;15.19;100.00;101239.91;6331809;22;45362;-87
2022/03/03 07:45:16;;;;;;;;;43.50;38.00;;;;;15.27;100.00;101249.84;6332951;22;46602;-88
2022/03/03 07:47:42;;;;;;;;;54.25;43.00;;;;;15.36;100.00;101242.22;6331842;22;45289;-88
2022/03/03 07:50:08;;;;;;;;;52.00;40.25;;;;;15.43;100.00;101242.44;6333409;22;45334;-88
2022/03/03 07:52:34;;;;;;;;;40.75;35.00;;;;;15.47;100.00;101247.88;6333036;22;45391;-89
2022/03/03 07:54:59;;;;;;;;;50.50;38.75;;;;;15.49;100.00;101235.56;6335929;22;45582;-88
2022/03/03 07:57:48;;;;;;;;;51.75;41.75;;;;;15.64;100.00;101242.25;6332942;22;45360;-88
2022/03/03 08:00:14;;;;;;;;;49.25;38.75;;;;;15.58;100.00;101244.69;6308324;22;45367;-89
2022/03/03 08:02:45;;;;;;;;;54.50;43.75;;;;;15.68;100.00;101243.22;6330144;22;45461;-88
2022/03/03 08:05:11;;;;;;;;;54.50;42.25;;;;;15.70;100.00;101252.09;6330955;22;47583;-88
2022/03/03 08:07:43;;;;;;;;;55.75;40.50;;;;;15.84;100.00;101247.25;6330971;22;45334;-88
2022/03/03 08:10:10;;;;;;;;;51.75;41.00;;;;;15.86;100.00;101237.63;6330750;22;45227;-87
2022/03/03 08:12:37;;;;;;;;;51.75;41.25;;;;;15.93;100.00;101239.59;6330236;22;45458;-87
2022/03/03 08:15:02;;;;;;;;;53.00;40.50;;;;;16.05;100.00;101246.19;6330550;22;47504;-88
2022/03/03 08:17:30;;;;;;;;;53.25;43.75;;;;;16.14;100.00;101234.94;6327972;22;45447;-88
2022/03/03 08:19:56;;;;;;;;;54.00;41.00;;;;;16.24;100.00;101237.03;6328949;22;45376;-88
2022/03/03 08:22:25;;;;;;;;;53.00;44.50;;;;;16.38;100.00;101237.44;6330095;22;45666;-89
2022/03/03 08:24:57;;;;;;;;;54.50;42.50;;;;;16.38;100.00;101233.88;6329703;22;48403;-89
2022/03/03 08:27:25;;;;;;;;;52.75;41.25;;;;;16.35;100.00;101229.41;6354467;22;46083;-88
2022/03/03 08:29:51;;;;;;;;;32.75;24.00;;;;;16.41;100.00;101231.34;6332907;22;45362;-88
2022/03/03 08:32:19;;;;;;;;;50.00;41.25;;;;;16.55;100.00;101229.06;6331910;22;45350;-89
2022/03/03 08:35:04;;;;;;;;;52.50;41.50;;;;;16.58;100.00;101233.56;6332052;22;45430;-89
2022/03/03 08:37:38;;;;;;;;;51.00;42.00;;;;;16.72;100.00;101234.84;6327292;22;45641;-88
2022/03/03 08:40:09;;;;;;;;;54.00;40.50;;;;;16.83;100.00;101236.88;6328795;22;45522;-88
2022/03/03 08:42:46;;;;;;;;;49.50;40.75;;;;;16.89;100.00;101234.41;6330531;22;45354;-88
2022/03/03 08:45:12;;;;;;;;;50.50;39.50;;;;;16.88;100.00;101237.91;6355327;22;47264;-88
2022/03/03 08:47:42;;;;;;;;;53.25;42.25;;;;;17.08;100.00;101248.16;6329444;22;45558;-88
2022/03/03 08:50:13;;;;;;;;;55.75;41.50;;;;;17.19;100.00;101248.47;6328542;22;45341;-88
2022/03/03 08:52:41;;;;;;;;;52.00;42.50;;;;;17.27;100.00;101261.91;6330562;22;45398;-89
2022/03/03 08:55:08;;;;;;;;;54.00;43.00;;;;;17.31;100.00;101245.25;6329947;22;47625;-89
2022/03/03 08:57:33;;;;;;;;;54.50;43.25;;;;;17.42;100.00;101249.03;6333409;22;45395;-87
2022/03/03 08:59:59;;;;;;;;;53.00;43.25;;;;;17.46;100.00;101246.47;6329692;22;45355;-87
2022/03/03 09:02:24;;;;;;;;;53.50;42.00;;;;;17.50;100.00;101249.25;6330570;22;45256;-88
2022/03/03 09:04:49;;;;;;;;;57.25;42.75;;;;;17.57;100.00;101266.22;6330615;22;46418;-88
2022/03/03 09:07:15;;;;;;;;;53.25;42.25;;;;;17.63;100.00;101266.38;6331884;22;45303;-88
2022/03/03 09:09:40;;;;;;;;;44.75;38.50;;;;;17.69;100.00;101262.06;6332513;22;45662;-88
2022/03/03 09:12:06;;;;;;;;;54.25;42.75;;;;;17.78;100.00;101266.72;6328101;22;45485;-88
2022/03/03 09:14:32;;;;;;;;;52.75;41.75;;;;;17.82;100.00;101258.84;6330143;22;46328;-87
2022/03/03 09:16:58;;;;;;;;;50.75;41.00;;;;;17.91;100.00;101254.63;6329315;22;45464;-88
2022/03/03 09:19:23;;;;;;;;;49.00;39.50;;;;;17.95;100.00;101256.47;6329745;22;45554;-87
2022/03/03 09:21:49;;;;;;;;;46.75;40.75;;;;;17.97;100.00;101257.41;6330826;22;45391;-87
2022/03/03 09:24:14;;;;;;;;;53.25;43.25;;;;;17.94;100.00;101249.34;6330985;22;49873;-88
2022/03/03 09:26:40;;;;;;;;;1531.33;1531.33;;;;;17.97;100.00;101255.66;6329629;22;45324;-88
2022/03/03 09:29:05;;;;;;;;;49.50;41.25;;;;;18.00;100.00;101259.22;6329965;22;45326;-87
2022/03/03 09:31:31;;;;;;;;;51.25;41.75;;;;;18.11;100.00;101259.47;6332011;22;45345;-88
2022/03/03 09:33:56;;;;;;;;;52.50;40.25;;;;;18.24;100.00;101256.28;6329785;22;47783;-88
2022/03/03 09:36:22;;;;;;;;;50.75;38.75;;;;;18.38;100.00;101255.66;6330977;22;45300;-88
2022/03/03 09:38:47;;;;;;;;;52.75;42.25;;;;;18.53;100.00;101247.09;6358919;22;45848;-87
2022/03/03 09:41:13;;;;;;;;;55.75;43.00;;;;;18.76;100.00;101252.00;6358513;22;45313;-88
2022/03/03 09:43:43;;;;;;;;;55.25;42.75;;;;;18.93;100.00;101243.44;6334025;22;46261;-88
2022/03/03 09:46:10;;;;;;;;;55.50;42.25;;;;;19.03;100.00;101248.06;6333735;22;45792;-89
2022/03/03 09:48:35;;;;;;;;;52.00;41.00;;;;;19.05;100.00;101248.06;6333077;22;45424;-88
2022/03/03 09:51:01;;;;;;;;;54.75;43.75;;;;;19.11;100.00;101248.19;6332926;22;45482;-88
2022/03/03 09:53:27;;;;;;;;;55.75;46.00;;;;;19.22;100.00;101248.41;6358848;22;47080;-88
2022/03/03 09:55:52;;;;;;;;;50.25;41.50;;;;;19.31;100.00;101245.91;6333355;22;45623;-88
2022/03/03 09:58:18;;;;;;;;;51.00;38.00;;;;;19.37;100.00;101247.78;6334657;22;45297;-89
2022/03/03 10:00:44;;;;;;;;;54.00;43.00;;;;;19.39;100.00;101253.13;6335162;22;45521;-87
2022/03/03 10:03:14;;;;;;;;;54.50;43.75;;;;;19.31;100.00;101258.31;6331971;22;47534;-86
2022/03/03 10:05:47;;;;;;;;;138.50;131.25;;;;;19.16;100.00;101256.25;6359789;22;45363;-87
2022/03/03 10:08:18;;;;;;;;;53.25;40.75;;;;;19.10;100.00;101257.94;6335663;22;45453;-86
2022/03/03 10:10:49;;;;;;;;;54.50;42.75;;;;;19.08;100.00;101249.03;6336218;22;45415;-89
2022/03/03 10:13:16;;;;;;;;;50.25;40.50;;;;;19.09;100.00;101261.47;6377490;22;47290;-89
2022/03/03 10:15:43;;;;;;;;;54.25;44.00;;;;;19.27;100.00;101253.81;6351582;22;45273;-88
2022/03/03 10:18:14;;;;;;;;;50.50;42.25;;;;;19.54;100.00;101253.38;6381448;22;44755;-88
2022/03/03 10:20:54;;;;;;;;;50.25;39.75;;;;;19.75;100.00;101248.34;6347985;22;45304;-87
2022/03/03 10:23:36;;;;;;;;;51.50;41.50;;;;;19.83;100.00;101246.72;6335990;22;46167;-87
2022/03/03 10:26:05;;;;;;;;;48.50;40.50;;;;;19.87;100.00;101244.97;6332158;22;45941;-88
2022/03/03 10:28:33;;;;;;;;;51.00;41.25;;;;;19.87;100.00;101248.53;6330683;22;45356;-88
2022/03/03 10:31:04;;;;;;;;;54.00;43.00;;;;;19.83;100.00;101251.13;6333209;22;45257;-88
2022/03/03 10:33:32;;;;;;;;;51.25;42.50;;;;;19.74;100.00;101238.59;6335679;22;45878;-88
2022/03/03 10:35:59;;;;;;;;;52.50;40.00;;;;;19.70;100.00;101242.97;6335019;22;45294;-88
2022/03/03 10:38:25;;;;;;;;;50.75;39.50;;;;;19.69;100.00;101240.28;6334443;22;45312;-87
2022/03/03 10:40:50;;;;;;;;;47.00;38.75;;;;;19.78;100.00;101251.06;6332309;22;45427;-87
2022/03/03 10:43:16;;;;;;;;;53.00;42.50;;;;;19.80;100.00;101244.00;6333420;22;45782;-89
2022/03/03 10:45:54;;;;;;;;;55.25;43.50;;;;;20.16;100.00;101251.63;6359490;22;45257;-88
2022/03/03 10:48:25;;;;;;;;;52.50;41.75;;;;;20.25;100.00;101240.19;6331989;22;45371;-88
2022/03/03 10:50:54;;;;;;;;;51.00;40.25;;;;;20.26;100.00;101252.63;6329354;22;45364;-88
2022/03/03 10:53:24;;;;;;;;;54.50;40.00;;;;;20.28;100.00;101235.78;6332195;22;45483;-88
2022/03/03 10:56:12;;;;;;;;;52.50;41.75;;;;;20.57;100.00;101238.78;6330733;22;45368;-88
2022/03/03 10:58:50;;;;;;;;;46.00;38.50;;;;;20.56;100.00;101235.25;6332161;22;45270;-88
2022/03/03 11:01:19;;;;;;;;;52.50;40.75;;;;;20.51;100.00;101229.84;6356946;22;45246;-88
2022/03/03 11:03:51;;;;;;;;;48.50;40.25;;;;;20.56;100.00;101239.69;6328907;22;47278;-89